Time;durP1;ratioP1;P1;durP2;ratioP2;P2;SDS_P1;SDS_P2;PMS_P1;PMS_P2;Temp;Humidity;BMP_temperature;BMP_pressure;BME280_temperature;BME280_humidity;BME280_pressure;Samples;Min_cycle;Max_cycle;Signal;HPM_P1;HPM_P2
2021/01/30 00:01:54;;;;;;;3.55;1.50;;;5.70;99.90;;;;;;4951806;28;20390;-78
2021/01/30 00:04:23;;;;;;;10.25;2.63;;;5.80;99.90;;;;;;4959660;29;20055;-77
2021/01/30 00:06:52;;;;;;;9.57;3.58;;;5.80;99.90;;;;;;4960838;29;20055;-77
2021/01/30 00:09:20;;;;;;;;;;;5.70;99.90;;;;;;4960594;28;20047;-78
2021/01/30 00:11:48;;;;;;;15.75;3.78;;;5.70;99.90;;;;;;4962459;29;19922;-79
2021/01/30 00:14:20;;;;;;;12.10;3.78;;;5.60;99.90;;;;;;4961041;29;20051;-77
2021/01/30 00:16:49;;;;;;;10.32;3.38;;;5.60;99.90;;;;;;4945418;29;20059;-77
2021/01/30 00:19:17;;;;;;;11.07;3.40;;;5.60;99.90;;;;;;4954027;28;20055;-78
2021/01/30 00:21:59;;;;;;;9.13;3.28;;;5.60;99.90;;;;;;4928883;29;20059;-77
2021/01/30 00:24:30;;;;;;;10.27;3.75;;;5.60;99.90;;;;;;4963383;28;20066;-79
2021/01/30 00:27:04;;;;;;;7.60;2.70;;;5.50;99.90;;;;;;4965280;29;20051;-77
2021/01/30 00:29:33;;;;;;;7.55;2.90;;;5.50;99.90;;;;;;4947374;29;20067;-78
2021/01/30 00:32:01;;;;;;;6.20;2.10;;;5.40;99.90;;;;;;4926194;29;20059;-79
2021/01/30 00:34:32;;;;;;;8.60;2.30;;;5.50;99.90;;;;;;4946698;29;20062;-77
2021/01/30 00:37:08;;;;;;;12.40;4.43;;;5.60;99.90;;;;;;4944388;29;20290;-80
2021/01/30 00:39:39;;;;;;;10.88;3.70;;;5.50;99.90;;;;;;4923802;29;20059;-77
2021/01/30 00:42:09;;;;;;;13.00;4.07;;;5.60;99.90;;;;;;4955573;28;20051;-79
2021/01/30 00:44:37;;;;;;;6.97;3.15;;;5.60;99.90;;;;;;4960192;29;20086;-76
2021/01/30 00:47:06;;;;;;;8.73;2.60;;;5.60;99.90;;;;;;4961241;29;20047;-78
2021/01/30 00:49:40;;;;;;;11.95;3.60;;;5.60;99.90;;;;;;4961760;29;20294;-78
2021/01/30 00:52:10;;;;;;;6.97;2.63;;;5.70;99.90;;;;;;4958387;28;20066;-78
2021/01/30 00:54:39;;;;;;;8.93;2.80;;;5.70;99.90;;;;;;4940290;29;20067;-76
2021/01/30 00:57:07;;;;;;;5.82;2.92;;;5.70;99.90;;;;;;4944868;28;20078;-77
2021/01/30 00:59:35;;;;;;;6.68;2.70;;;5.70;99.90;;;;;;4959238;28;20051;-77
2021/01/30 01:02:04;;;;;;;9.20;2.80;;;5.80;99.90;;;;;;4959482;28;20096;-78
2021/01/30 01:04:43;;;;;;;6.13;2.47;;;5.80;99.90;;;;;;4929279;29;20061;-77
2021/01/30 01:07:13;;;;;;;5.70;2.15;;;5.80;99.90;;;;;;4926647;29;20074;-78
2021/01/30 01:09:40;;;;;;;5.03;2.28;;;5.80;99.90;;;;;;4947279;29;20056;-82
2021/01/30 01:12:08;;;;;;;9.52;2.47;;;5.80;99.90;;;;;;4930716;29;20055;-77
2021/01/30 01:14:36;;;;;;;8.37;2.07;;;5.90;99.90;;;;;;4945330;29;20064;-78
2021/01/30 01:17:03;;;;;;;6.25;2.40;;;5.90;99.90;;;;;;4942226;29;20490;-77
2021/01/30 01:19:31;;;;;;;4.95;2.20;;;6.00;99.90;;;;;;4940469;29;20058;-77
2021/01/30 01:21:58;;;;;;;6.20;2.53;;;6.00;99.90;;;;;;4926256;29;20048;-77
2021/01/30 01:24:27;;;;;;;6.68;1.92;;;5.90;99.90;;;;;;4940727;29;20047;-77
2021/01/30 01:26:54;;;;;;;6.35;2.00;;;6.00;99.90;;;;;;4969026;29;20049;-78
2021/01/30 01:29:23;;;;;;;5.45;1.92;;;6.10;99.90;;;;;;4986233;28;20043;-76
2021/01/30 01:31:56;;;;;;;9.55;1.83;;;6.10;99.90;;;;;;4975025;29;20059;-77
2021/01/30 01:34:28;;;;;;;9.90;2.20;;;6.20;99.90;;;;;;4969438;28;20055;-77
2021/01/30 01:37:01;;;;;;;6.25;2.05;;;6.20;99.90;;;;;;4966662;29;20494;-78
2021/01/30 01:39:31;;;;;;;4.47;1.73;;;6.20;99.90;;;;;;4965964;28;20364;-79
2021/01/30 01:42:08;;;;;;;7.97;1.95;;;6.30;99.90;;;;;;4966634;29;20065;-77
2021/01/30 01:44:37;;;;;;;4.85;2.20;;;6.30;99.90;;;;;;4947349;29;20062;-78
2021/01/30 01:47:08;;;;;;;8.05;2.10;;;6.30;99.90;;;;;;4945095;29;20058;-78
2021/01/30 01:49:41;;;;;;;4.63;2.10;;;6.50;99.90;;;;;;4959193;28;20051;-79
2021/01/30 01:52:25;;;;;;;5.60;2.50;;;6.40;99.90;;;;;;4956283;29;20051;-79
2021/01/30 01:54:58;;;;;;;9.35;3.33;;;6.30;99.90;;;;;;4956708;29;20062;-79
2021/01/30 01:57:25;;;;;;;12.27;6.40;;;6.40;99.90;;;;;;4961600;29;20055;-78
2021/01/30 02:00:03;;;;;;;18.48;9.90;;;6.20;99.90;;;;;;4961745;28;20039;-79
2021/01/30 02:02:36;;;;;;;23.33;11.20;;;5.90;99.90;;;;;;4956125;29;20047;-77
2021/01/30 02:05:10;;;;;;;25.80;12.75;;;5.40;99.90;;;;;;4956430;28;20051;-77
2021/01/30 02:07:39;;;;;;;28.13;12.68;;;5.00;99.90;;;;;;4966438;28;20062;-77
2021/01/30 02:10:12;;;;;;;25.27;12.60;;;4.70;99.90;;;;;;4959738;28;20055;-78
2021/01/30 02:12:43;;;;;;;28.35;12.90;;;4.50;99.90;;;;;;4967727;28;20123;-81
2021/01/30 02:15:14;;;;;;;23.52;12.20;;;4.20;99.90;;;;;;4962480;29;20055;-77
2021/01/30 02:17:49;;;;;;;28.52;11.80;;;4.00;99.90;;;;;;4950322;29;20055;-76
2021/01/30 02:20:46;;;;;;;26.83;12.32;;;3.80;99.90;;;;;;4968356;29;20058;-77
2021/01/30 02:24:03;;;;;;;25.67;11.68;;;3.70;99.90;;;;;;4964755;29;20078;-77
2021/01/30 02:27:21;;;;;;;29.30;12.60;;;3.50;99.90;;;;;;4954696;28;20054;-80
2021/01/30 02:30:22;;;;;;;25.13;9.97;;;3.40;99.90;;;;;;4971649;28;20070;-77
2021/01/30 02:33:16;;;;;;;21.17;10.15;;;3.30;99.90;;;;;;4959688;29;20059;-78
2021/01/30 02:36:03;;;;;;;24.13;11.57;;;3.20;99.90;;;;;;4958423;29;20055;-78
2021/01/30 02:38:34;;;;;;;26.15;10.90;;;3.20;99.90;;;;;;4955661;29;20047;-79
2021/01/30 02:41:07;;;;;;;25.20;11.27;;;3.10;99.90;;;;;;4955677;28;20119;-78
2021/01/30 02:43:41;;;;;;;20.17;10.02;;;3.00;99.90;;;;;;4955805;29;20062;-79
2021/01/30 02:46:20;;;;;;;17.92;9.20;;;3.10;99.90;;;;;;4954436;28;20059;-77
2021/01/30 02:48:50;;;;;;;18.20;8.70;;;3.20;99.90;;;;;;4955657;29;20054;-77
2021/01/30 02:51:27;;;;;;;19.63;9.38;;;3.20;99.90;;;;;;4957296;28;20055;-76
2021/01/30 02:53:59;;;;;;;16.63;9.05;;;3.30;99.90;;;;;;4960297;28;20387;-77
2021/01/30 02:56:29;;;;;;;17.17;9.75;;;3.20;99.90;;;;;;4961454;28;20063;-77
2021/01/30 02:59:03;;;;;;;16.83;9.13;;;3.10;99.90;;;;;;4963369;28;20056;-77
2021/01/30 03:01:34;;;;;;;15.40;8.18;;;3.00;99.90;;;;;;4928867;29;20056;-78
2021/01/30 03:04:06;;;;;;;16.00;8.33;;;2.80;99.90;;;;;;4943556;29;20059;-77
2021/01/30 03:06:45;;;;;;;19.07;8.60;;;2.70;99.90;;;;;;4958143;28;20062;-80
2021/01/30 03:09:15;;;;;;;;;;;2.60;99.90;;;;;;4930075;29;20062;-79
2021/01/30 03:11:51;;;;;;;16.90;8.40;;;2.60;99.90;;;;;;4962855;29;19926;-76
2021/01/30 03:14:24;;;;;;;13.87;8.17;;;2.40;99.90;;;;;;4961402;29;20066;-77
2021/01/30 03:16:55;;;;;;;19.50;9.20;;;2.30;99.90;;;;;;4963131;28;20059;-77
2021/01/30 03:19:26;;;;;;;20.03;9.27;;;2.20;99.90;;;;;;4958165;29;20394;-79
2021/01/30 03:22:01;;;;;;;15.83;9.07;;;2.10;99.90;;;;;;4956604;29;20504;-77
2021/01/30 03:24:29;;;;;;;16.03;8.90;;;2.00;99.90;;;;;;4960450;28;20055;-77
2021/01/30 03:26:57;;;;;;;15.32;7.82;;;2.00;99.90;;;;;;4956042;29;20062;-78
2021/01/30 03:29:26;;;;;;;12.87;6.80;;;2.00;99.90;;;;;;4956000;28;20048;-76
2021/01/30 03:31:58;;;;;;;10.67;6.37;;;1.80;99.90;;;;;;4941431;29;20059;-77
2021/01/30 03:34:25;;;;;;;;;;;1.80;99.90;;;;;;4944557;29;20063;-77
2021/01/30 03:36:54;;;;;;;;;;;1.80;99.90;;;;;;4952457;28;19922;-77
2021/01/30 03:39:29;;;;;;;9.13;5.37;;;1.70;99.90;;;;;;4956251;28;19923;-77
2021/01/30 03:41:57;;;;;;;10.97;5.97;;;1.70;99.90;;;;;;4964699;28;20466;-81
2021/01/30 03:44:24;;;;;;;10.93;5.50;;;1.60;99.90;;;;;;4955001;29;20066;-77
2021/01/30 03:46:51;;;;;;;12.77;5.80;;;1.60;99.90;;;;;;4948275;29;20056;-79
2021/01/30 03:49:22;;;;;;;8.53;5.10;;;1.70;99.90;;;;;;4947876;29;20048;-77
2021/01/30 03:51:50;;;;;;;11.37;5.63;;;1.70;99.90;;;;;;4948685;29;20059;-80
2021/01/30 03:54:17;;;;;;;11.50;5.60;;;1.50;99.90;;;;;;4964550;29;20055;-78
2021/01/30 03:56:48;;;;;;;12.13;5.67;;;1.50;99.90;;;;;;4926966;29;20060;-79
2021/01/30 03:59:18;;;;;;;11.82;6.18;;;1.40;99.90;;;;;;4908181;29;20053;-77
2021/01/30 04:01:48;;;;;;;13.37;6.57;;;1.40;99.90;;;;;;4907430;29;20366;-76
2021/01/30 04:04:16;;;;;;;11.32;6.28;;;1.30;99.90;;;;;;4926273;29;20063;-78
2021/01/30 04:06:47;;;;;;;15.03;7.17;;;1.30;99.90;;;;;;4922879;29;20080;-77
2021/01/30 04:09:17;;;;;;;15.53;7.57;;;1.20;99.90;;;;;;4920959;29;20052;-76
2021/01/30 04:11:45;;;;;;;14.83;7.13;;;1.20;99.90;;;;;;4922346;29;20075;-76
2021/01/30 04:14:15;;;;;;;13.23;7.33;;;1.20;99.90;;;;;;4922114;29;20063;-76
2021/01/30 04:16:45;;;;;;;14.53;7.70;;;1.20;99.90;;;;;;4928252;29;20066;-78
2021/01/30 04:19:15;;;;;;;16.03;7.53;;;1.20;99.90;;;;;;4939787;29;20052;-77
2021/01/30 04:21:43;;;;;;;14.53;7.73;;;1.20;99.90;;;;;;4906429;29;20461;-77
2021/01/30 04:24:11;;;;;;;24.27;9.47;;;1.20;99.90;;;;;;4919680;29;20055;-77
2021/01/30 04:26:39;;;;;;;17.70;9.00;;;1.20;99.90;;;;;;4922745;29;20480;-77
2021/01/30 04:29:08;;;;;;;23.80;11.37;;;1.20;99.90;;;;;;4940447;29;20052;-78
2021/01/30 04:31:37;;;;;;;16.87;9.53;;;1.20;99.90;;;;;;4941659;29;20055;-79
2021/01/30 04:34:06;;;;;;;17.73;8.27;;;1.20;99.90;;;;;;4923240;29;20471;-78
2021/01/30 04:36:34;;;;;;;18.27;8.07;;;1.10;99.90;;;;;;4937071;29;20052;-78
2021/01/30 04:39:03;;;;;;;17.17;8.77;;;1.20;99.90;;;;;;4906834;29;20064;-77
2021/01/30 04:41:48;;;;;;;14.33;7.43;;;1.20;99.90;;;;;;4923509;29;20049;-77
2021/01/30 04:44:23;;;;;;;13.87;7.17;;;1.20;99.90;;;;;;4925068;29;20164;-77
2021/01/30 04:47:03;;;;;;;13.80;6.87;;;1.20;99.90;;;;;;4934606;29;20060;-77
2021/01/30 04:49:45;;;;;;;15.17;6.17;;;1.20;99.90;;;;;;4949790;29;20063;-77
2021/01/30 04:52:32;;;;;;;14.03;6.67;;;1.20;99.90;;;;;;4935177;29;20060;-77
2021/01/30 04:55:10;;;;;;;13.70;6.37;;;1.10;99.90;;;;;;4941243;29;20066;-77
2021/01/30 04:57:46;;;;;;;13.03;6.43;;;1.10;99.90;;;;;;4940256;29;20055;-79
2021/01/30 05:00:50;;;;;;;13.93;6.57;;;1.00;99.90;;;;;;4954872;29;20075;-78
2021/01/30 05:03:39;;;;;;;11.73;5.73;;;1.10;99.90;;;;;;4952251;29;20058;-78
2021/01/30 05:06:15;;;;;;;13.63;6.93;;;1.10;99.90;;;;;;4952343;29;20052;-78
2021/01/30 05:08:48;;;;;;;13.73;6.07;;;1.00;99.90;;;;;;4950215;29;20475;-77
2021/01/30 05:11:22;;;;;;;11.73;6.20;;;1.00;99.90;;;;;;4971435;29;20069;-77
2021/01/30 05:13:57;;;;;;;15.00;6.30;;;1.10;99.90;;;;;;4953827;29;20059;-79
2021/01/30 05:16:31;;;;;;;14.63;6.43;;;1.10;99.90;;;;;;4969583;29;20054;-80
2021/01/30 05:19:07;;;;;;;14.87;6.53;;;1.00;99.90;;;;;;4954432;29;20051;-78
2021/01/30 05:21:43;;;;;;;11.07;6.07;;;1.00;99.90;;;;;;4949627;29;20357;-77
2021/01/30 05:24:13;;;;;;;12.23;6.60;;;0.90;99.90;;;;;;4932907;29;20060;-76
2021/01/30 05:26:50;;;;;;;15.60;6.70;;;0.90;99.90;;;;;;4961461;29;20051;-78
2021/01/30 05:29:22;;;;;;;16.10;6.03;;;0.80;99.90;;;;;;4965273;29;20047;-78
2021/01/30 05:32:02;;;;;;;14.00;6.50;;;0.80;99.90;;;;;;4935345;29;20059;-79
2021/01/30 05:34:42;;;;;;;13.97;6.40;;;0.80;99.90;;;;;;4941908;29;20047;-77
2021/01/30 05:37:12;;;;;;;11.53;6.20;;;0.90;99.90;;;;;;4959435;29;20054;-78
2021/01/30 05:40:03;;;;;;;12.60;6.63;;;0.90;99.90;;;;;;4963077;29;20055;-78
2021/01/30 05:42:36;;;;;;;12.52;5.85;;;1.00;99.90;;;;;;4942026;29;20483;-82
2021/01/30 05:45:15;;;;;;;12.77;6.53;;;0.90;99.90;;;;;;4941266;29;20052;-77
2021/01/30 05:47:46;;;;;;;12.17;6.83;;;0.80;99.90;;;;;;4958308;29;20066;-77
2021/01/30 05:50:25;;;;;;;13.10;5.77;;;0.80;99.90;;;;;;4958979;28;20051;-77
2021/01/30 05:52:55;;;;;;;12.52;6.57;;;0.70;99.90;;;;;;4942427;29;20058;-77
2021/01/30 05:55:26;;;;;;;11.67;6.37;;;0.70;99.90;;;;;;4962509;28;20423;-77
2021/01/30 05:57:54;;;;;;;15.57;7.20;;;0.70;99.90;;;;;;4952389;29;20059;-78
2021/01/30 06:00:23;;;;;;;12.60;5.90;;;0.80;99.90;;;;;;4940607;29;20051;-78
2021/01/30 06:03:01;;;;;;;;;;;0.80;99.90;;;;;;4947580;29;20047;-78
2021/01/30 06:05:32;;;;;;;8.87;5.10;;;0.70;99.90;;;;;;4960963;28;19922;-78
2021/01/30 06:08:24;;;;;;;10.07;4.83;;;0.80;99.90;;;;;;4957701;29;20078;-76
2021/01/30 06:10:54;;;;;;;11.50;5.00;;;0.80;99.90;;;;;;4954459;28;20066;-77
2021/01/30 06:13:25;;;;;;;10.00;5.50;;;0.70;99.90;;;;;;4946091;28;20055;-77
2021/01/30 06:15:54;;;;;;;10.73;4.63;;;0.60;99.90;;;;;;4949273;29;20047;-77
2021/01/30 06:18:32;;;;;;;7.73;4.50;;;0.60;99.90;;;;;;4954881;28;20090;-78
2021/01/30 06:21:04;;;;;;;11.47;4.77;;;0.60;99.90;;;;;;4958528;28;20047;-76
2021/01/30 06:23:32;;;;;;;10.07;4.93;;;0.60;99.90;;;;;;4943028;29;20063;-76
2021/01/30 06:26:19;;;;;;;8.27;4.27;;;0.50;99.90;;;;;;4939863;29;20052;-78
2021/01/30 06:28:56;;;;;;;10.53;4.43;;;0.50;99.90;;;;;;4906878;29;20055;-77
2021/01/30 06:31:33;;;;;;;10.30;4.77;;;0.50;99.90;;;;;;4937905;29;20245;-79
2021/01/30 06:34:12;;;;;;;9.40;4.63;;;0.50;99.90;;;;;;4955943;28;20047;-77
2021/01/30 06:36:49;;;;;;;10.82;5.40;;;0.50;99.90;;;;;;4957883;29;20388;-76
2021/01/30 06:39:25;;;;;;;12.30;4.53;;;0.40;99.90;;;;;;4956862;29;20379;-77
2021/01/30 06:41:57;;;;;;;11.50;5.17;;;0.40;99.90;;;;;;4936416;29;20059;-80
2021/01/30 06:44:30;;;;;;;9.57;5.07;;;0.40;99.90;;;;;;4941956;29;20051;-77
2021/01/30 06:47:10;;;;;;;11.63;5.70;;;0.40;99.90;;;;;;4950420;29;20055;-77
2021/01/30 06:49:41;;;;;;;16.00;6.40;;;0.50;99.90;;;;;;4935585;29;20379;-77
2021/01/30 06:52:13;;;;;;;12.70;6.37;;;0.50;99.90;;;;;;4944617;29;20058;-78
2021/01/30 06:54:40;;;;;;;12.67;6.60;;;0.60;99.90;;;;;;4968634;28;20067;-79
2021/01/30 06:57:13;;;;;;;10.60;5.93;;;0.60;99.90;;;;;;4954517;29;20055;-78
2021/01/30 06:59:55;;;;;;;12.60;6.50;;;0.60;99.90;;;;;;4953990;29;20394;-77
2021/01/30 07:02:33;;;;;;;11.83;5.90;;;0.60;99.90;;;;;;4937678;29;20047;-77
2021/01/30 07:05:25;;;;;;;10.67;5.77;;;0.50;99.90;;;;;;4956057;29;20085;-78
2021/01/30 07:08:36;;;;;;;10.83;5.53;;;0.50;99.90;;;;;;4952655;29;20403;-77
2021/01/30 07:11:33;;;;;;;12.90;5.73;;;0.60;99.90;;;;;;4951194;28;20140;-76
2021/01/30 07:14:09;;;;;;;17.57;6.10;;;0.60;99.90;;;;;;4957441;29;20055;-78
2021/01/30 07:16:45;;;;;;;13.33;6.23;;;0.70;99.90;;;;;;4966373;28;20066;-79
2021/01/30 07:19:24;;;;;;;11.77;5.77;;;0.70;99.90;;;;;;4960773;29;20063;-82
2021/01/30 07:22:00;;;;;;;11.43;5.70;;;0.70;99.90;;;;;;4957255;29;20062;-78
2021/01/30 07:24:42;;;;;;;12.30;6.13;;;0.70;99.90;;;;;;4965113;29;20059;-78
2021/01/30 07:27:16;;;;;;;12.03;6.17;;;0.60;99.90;;;;;;4963732;28;20047;-79
2021/01/30 07:29:51;;;;;;;11.30;6.10;;;0.60;99.90;;;;;;4963645;29;20059;-79
2021/01/30 07:32:24;;;;;;;13.30;6.80;;;0.60;99.90;;;;;;4963466;29;20047;-81
2021/01/30 07:35:14;;;;;;;13.53;5.93;;;0.60;99.90;;;;;;4945285;28;20094;-77
2021/01/30 07:37:53;;;;;;;13.07;6.37;;;0.60;99.90;;;;;;4943187;29;20081;-77
2021/01/30 07:40:39;;;;;;;14.60;6.70;;;0.70;99.90;;;;;;4949159;28;20047;-77
2021/01/30 07:43:14;;;;;;;10.17;5.73;;;0.70;99.90;;;;;;4961455;28;20059;-77
2021/01/30 07:45:46;;;;;;;11.47;6.20;;;0.70;99.90;;;;;;4944958;29;20078;-77
2021/01/30 07:48:22;;;;;;;12.57;6.17;;;0.80;99.90;;;;;;4944645;29;20052;-80
2021/01/30 07:50:54;;;;;;;13.30;6.30;;;0.80;99.90;;;;;;4951206;29;20051;-77
2021/01/30 07:53:24;;;;;;;13.40;6.73;;;0.70;99.90;;;;;;4961301;29;20085;-78
2021/01/30 07:56:12;;;;;;;14.93;6.20;;;0.80;99.90;;;;;;4957790;28;20055;-77
2021/01/30 07:59:04;;;;;;;13.40;6.35;;;0.70;99.90;;;;;;4971200;28;20051;-77
2021/01/30 08:02:03;;;;;;;14.13;6.77;;;0.80;99.90;;;;;;4960490;29;20043;-78
2021/01/30 08:04:53;;;;;;;;;;;0.80;99.90;;;;;;4940640;29;20423;-77
2021/01/30 08:07:34;;;;;;;14.60;6.33;;;0.90;99.90;;;;;;4963584;29;19933;-81
2021/01/30 08:10:07;;;;;;;18.17;7.97;;;0.90;99.90;;;;;;4971181;29;20055;-81
2021/01/30 08:13:01;;;;;;;17.03;9.10;;;1.50;99.90;;;;;;4947932;29;20058;-85
2021/01/30 08:15:38;;;;;;;14.97;8.00;;;2.10;99.90;;;;;;4955624;28;20062;-87
2021/01/30 08:18:16;;;;;;;18.03;8.77;;;2.20;99.90;;;;;;4957793;28;20510;-87
2021/01/30 08:20:51;;;;;;;17.70;8.75;;;2.10;99.90;;;;;;4959160;29;20371;-86
2021/01/30 08:23:34;;;;;;;18.57;8.80;;;2.40;99.90;;;;;;4952628;28;20066;-77
2021/01/30 08:26:12;;;;;;;20.77;8.40;;;2.10;99.90;;;;;;4968191;28;20062;-79
2021/01/30 08:28:50;;;;;;;17.60;8.43;;;2.00;99.90;;;;;;4974134;28;20059;-78
2021/01/30 08:31:42;;;;;;;18.27;9.30;;;1.70;99.90;;;;;;4969286;28;20051;-79
2021/01/30 08:34:37;;;;;;;20.90;8.37;;;1.50;99.90;;;;;;4969967;28;20065;-81
2021/01/30 08:37:36;;;;;;;22.27;9.87;;;1.30;99.90;;;;;;4976170;28;20051;-78
2021/01/30 08:40:20;;;;;;;24.00;9.70;;;1.20;99.90;;;;;;4923643;28;20062;-80
2021/01/30 08:42:58;;;;;;;22.23;9.40;;;1.20;99.90;;;;;;4989172;28;20051;-78
2021/01/30 08:45:31;;;;;;;20.80;9.73;;;1.10;99.90;;;;;;4958400;28;20074;-77
2021/01/30 08:48:28;;;;;;;22.63;9.63;;;1.10;99.90;;;;;;4972085;28;20070;-78
2021/01/30 08:51:00;;;;;;;26.23;10.53;;;1.00;99.90;;;;;;4968373;28;20065;-77
2021/01/30 08:53:33;;;;;;;23.37;10.97;;;1.00;99.90;;;;;;4944018;29;20051;-77
2021/01/30 08:56:02;;;;;;;26.57;10.83;;;1.00;99.90;;;;;;4961957;28;20071;-77
2021/01/30 08:58:51;;;;;;;22.50;9.67;;;1.00;99.90;;;;;;4964703;28;20051;-77
2021/01/30 09:01:44;;;;;;;21.83;9.67;;;1.10;99.90;;;;;;4962553;28;20052;-77
2021/01/30 09:04:40;;;;;;;23.97;10.33;;;1.20;99.90;;;;;;4968863;28;20074;-79
2021/01/30 09:07:25;;;;;;;19.63;9.27;;;1.20;99.90;;;;;;4967860;28;20060;-77
2021/01/30 09:10:33;;;;;;;22.00;9.70;;;1.30;99.90;;;;;;4961762;28;20055;-77
2021/01/30 09:13:06;;;;;;;21.80;9.27;;;1.30;99.90;;;;;;4960722;28;20070;-78
2021/01/30 09:16:00;;;;;;;24.17;9.80;;;1.30;99.90;;;;;;4965532;28;20051;-78
2021/01/30 09:18:47;;;;;;;20.43;9.63;;;1.30;99.90;;;;;;4988124;28;20542;-76
2021/01/30 09:21:23;;;;;;;23.53;9.93;;;1.30;99.90;;;;;;4969153;28;20387;-78
2021/01/30 09:24:11;;;;;;;21.00;9.03;;;1.30;99.90;;;;;;4963581;28;20066;-77
2021/01/30 09:26:53;;;;;;;21.60;9.43;;;1.30;99.90;;;;;;4968819;28;20050;-80
2021/01/30 09:29:25;;;;;;;21.57;9.40;;;1.30;99.90;;;;;;4965237;28;20058;-77
2021/01/30 09:31:57;;;;;;;21.93;9.43;;;1.30;99.90;;;;;;4958747;28;20056;-78
2021/01/30 09:34:33;;;;;;;19.83;9.10;;;1.30;99.90;;;;;;4958052;28;20138;-79
2021/01/30 09:37:02;;;;;;;18.40;8.47;;;1.30;99.90;;;;;;4960361;28;20058;-77
2021/01/30 09:39:34;;;;;;;24.43;9.97;;;1.30;99.90;;;;;;4946000;28;20055;-78
2021/01/30 09:42:07;;;;;;;23.80;9.77;;;1.30;99.90;;;;;;4944220;29;20391;-79
2021/01/30 09:44:38;;;;;;;19.17;8.83;;;1.20;99.90;;;;;;4959542;28;20471;-79
2021/01/30 09:47:13;;;;;;;18.53;9.07;;;1.20;99.90;;;;;;4942094;28;20054;-81
2021/01/30 09:49:47;;;;;;;23.17;10.03;;;1.10;99.90;;;;;;4946903;29;20046;-78
2021/01/30 09:52:19;;;;;;;19.07;8.83;;;1.20;99.90;;;;;;5204186;23;20071;-78
2021/01/30 09:54:53;;;;;;;18.80;7.93;;;1.20;99.90;;;;;;4939113;29;20056;-78
2021/01/30 09:57:24;;;;;;;18.93;7.43;;;1.20;99.90;;;;;;4923665;29;20056;-78
2021/01/30 09:59:59;;;;;;;19.17;8.20;;;1.20;99.90;;;;;;4909546;29;20048;-79
2021/01/30 10:02:33;;;;;;;24.63;8.90;;;1.20;99.90;;;;;;4922268;29;20040;-78
2021/01/30 10:05:11;;;;;;;20.03;8.37;;;1.20;99.90;;;;;;4928580;29;20044;-76
2021/01/30 10:07:42;;;;;;;29.77;10.07;;;1.30;99.90;;;;;;4927011;29;20059;-78
2021/01/30 10:10:30;;;;;;;27.57;8.80;;;1.30;99.90;;;;;;4939898;29;20067;-78
2021/01/30 10:13:00;;;;;;;18.77;8.10;;;1.40;99.90;;;;;;4940846;29;20056;-78
2021/01/30 10:15:29;;;;;;;;;;;1.40;99.90;;;;;;4928369;29;20060;-77
2021/01/30 10:18:02;;;;;;;16.43;7.27;;;1.50;99.90;;;;;;4923222;29;19923;-78
2021/01/30 10:20:44;;;;;;;15.83;6.87;;;1.50;99.90;;;;;;4923006;29;20064;-78
2021/01/30 10:23:12;;;;;;;19.50;8.37;;;1.60;99.90;;;;;;4945212;29;20056;-78
2021/01/30 10:25:40;;;;;;;18.37;8.33;;;1.50;99.90;;;;;;4921729;29;20063;-78
2021/01/30 10:28:10;;;;;;;15.40;7.37;;;1.50;99.90;;;;;;4936774;29;20066;-78
2021/01/30 10:30:38;;;;;;;24.23;8.77;;;1.50;99.90;;;;;;4929019;29;20063;-76
2021/01/30 10:33:09;;;;;;;17.67;9.00;;;1.40;99.90;;;;;;4930841;29;20059;-78
2021/01/30 10:35:46;;;;;;;23.00;9.47;;;1.40;99.90;;;;;;4903641;29;20314;-76
2021/01/30 10:38:18;;;;;;;15.30;6.77;;;1.40;99.90;;;;;;4928141;29;20067;-79
2021/01/30 10:40:54;;;;;;;15.63;7.63;;;1.50;99.90;;;;;;4944859;29;20055;-76
2021/01/30 10:43:24;;;;;;;20.43;8.03;;;1.50;99.90;;;;;;4921296;29;20084;-83
2021/01/30 10:45:55;;;;;;;16.27;7.37;;;1.50;99.90;;;;;;4927783;29;20049;-80
2021/01/30 10:48:24;;;;;;;16.27;7.73;;;1.50;99.90;;;;;;4925420;29;20139;-79
2021/01/30 10:51:03;;;;;;;16.83;7.80;;;1.50;99.90;;;;;;4931371;29;20052;-76
2021/01/30 10:53:33;;;;;;;23.27;8.57;;;1.50;99.90;;;;;;4938878;29;20063;-77
2021/01/30 10:56:19;;;;;;;16.23;7.73;;;1.40;99.90;;;;;;4954217;29;20067;-77
2021/01/30 10:58:46;;;;;;;14.23;7.17;;;1.50;99.90;;;;;;4941689;29;20056;-79
2021/01/30 11:01:30;;;;;;;18.13;7.07;;;1.40;99.90;;;;;;4945651;29;20036;-76
2021/01/30 11:04:01;;;;;;;17.03;8.10;;;1.50;99.90;;;;;;4948812;28;20034;-80
2021/01/30 11:06:32;;;;;;;21.70;8.23;;;1.60;99.90;;;;;;4940336;29;20058;-79
2021/01/30 11:09:10;;;;;;;18.37;7.53;;;1.70;99.90;;;;;;4953328;29;20056;-79
2021/01/30 11:11:38;;;;;;;20.13;8.87;;;1.70;99.90;;;;;;4933425;29;20036;-78
2021/01/30 11:14:15;;;;;;;16.20;7.73;;;1.80;99.90;;;;;;4935852;29;20060;-79
2021/01/30 11:16:46;;;;;;;17.65;7.95;;;1.90;99.90;;;;;;4949437;29;20075;-78
2021/01/30 11:19:23;;;;;;;19.03;7.57;;;1.90;99.90;;;;;;4953279;29;20460;-78
2021/01/30 11:22:05;;;;;;;16.77;7.47;;;1.90;99.90;;;;;;4962052;28;20066;-79
2021/01/30 11:24:35;;;;;;;19.57;8.23;;;1.90;99.90;;;;;;4955759;28;20040;-78
2021/01/30 11:27:03;;;;;;;15.80;7.23;;;2.00;99.90;;;;;;4936280;29;20052;-78
2021/01/30 11:29:37;;;;;;;16.98;7.68;;;2.10;99.90;;;;;;4937149;29;20064;-79
2021/01/30 11:32:21;;;;;;;22.37;8.03;;;2.10;99.90;;;;;;4924033;29;20056;-78
2021/01/30 11:34:54;;;;;;;15.40;6.80;;;2.00;99.90;;;;;;4953400;29;20060;-78
2021/01/30 11:37:23;;;;;;;15.50;7.30;;;2.00;99.90;;;;;;4933690;29;20050;-79
2021/01/30 11:39:51;;;;;;;21.93;7.63;;;1.90;99.90;;;;;;4931921;29;20060;-78
2021/01/30 11:42:19;;;;;;;16.43;8.00;;;2.00;99.90;;;;;;4923373;29;20062;-80
2021/01/30 11:44:47;;;;;;;17.87;7.73;;;2.00;99.90;;;;;;4911578;29;20052;-80
2021/01/30 11:47:15;;;;;;;13.23;6.40;;;2.00;99.90;;;;;;4924724;29;20067;-78
2021/01/30 11:49:44;;;;;;;13.27;6.18;;;2.00;99.90;;;;;;4948679;28;20048;-78
2021/01/30 11:52:17;;;;;;;14.77;6.87;;;2.00;99.90;;;;;;4923143;29;20064;-79
2021/01/30 11:54:46;;;;;;;16.40;7.10;;;1.90;99.90;;;;;;4918532;29;20479;-80
2021/01/30 11:57:17;;;;;;;11.97;6.40;;;1.90;99.90;;;;;;4946992;29;20043;-79
2021/01/30 11:59:47;;;;;;;15.03;6.37;;;1.90;99.90;;;;;;4946697;29;20064;-79
2021/01/30 12:02:29;;;;;;;13.53;6.50;;;1.90;99.90;;;;;;4922606;29;20074;-80
2021/01/30 12:04:57;;;;;;;14.67;6.73;;;1.90;99.90;;;;;;4926208;29;20059;-79
2021/01/30 12:07:29;;;;;;;11.23;5.67;;;2.00;99.90;;;;;;4931814;29;20048;-79
2021/01/30 12:10:01;;;;;;;11.53;5.57;;;2.20;99.90;;;;;;4908059;29;20062;-79
2021/01/30 12:12:30;;;;;;;13.77;5.60;;;2.20;99.90;;;;;;4909052;29;20052;-78
2021/01/30 12:14:58;;;;;;;12.88;5.57;;;2.20;99.90;;;;;;4926893;29;20059;-79
2021/01/30 12:17:37;;;;;;;9.77;4.70;;;2.20;99.90;;;;;;4948747;28;20055;-79
2021/01/30 12:20:21;;;;;;;13.33;6.20;;;2.30;99.90;;;;;;4922992;29;20074;-79
2021/01/30 12:22:50;;;;;;;9.90;5.22;;;2.30;99.90;;;;;;4937547;29;20048;-79
2021/01/30 12:25:20;;;;;;;10.43;5.03;;;2.50;99.90;;;;;;4938827;29;20051;-81
2021/01/30 12:27:50;;;;;;;12.82;5.60;;;2.70;99.90;;;;;;4931198;29;20055;-77
2021/01/30 12:30:22;;;;;;;8.88;4.72;;;3.00;99.90;;;;;;4937582;29;20071;-78
2021/01/30 12:32:52;;;;;;;7.85;4.00;;;3.20;99.90;;;;;;4936715;29;20056;-81
2021/01/30 12:35:22;;;;;;;9.50;4.00;;;3.30;99.90;;;;;;4924837;29;20060;-78
2021/01/30 12:37:50;;;;;;;8.70;4.18;;;3.40;99.90;;;;;;4944530;29;20457;-79
2021/01/30 12:40:21;;;;;;;9.55;4.57;;;3.30;99.90;;;;;;4920824;29;20059;-80
2021/01/30 12:42:50;;;;;;;10.40;5.38;;;3.30;99.90;;;;;;4928131;29;20048;-79
2021/01/30 12:45:20;;;;;;;9.38;5.07;;;3.30;99.90;;;;;;4928222;29;20076;-79
2021/01/30 12:47:53;;;;;;;10.93;5.35;;;3.20;99.90;;;;;;4900472;29;20071;-78
2021/01/30 12:50:23;;;;;;;11.35;5.20;;;3.30;99.90;;;;;;4910682;29;20075;-79
2021/01/30 12:52:50;;;;;;;12.68;5.50;;;3.20;99.90;;;;;;4933580;29;20052;-79
2021/01/30 12:55:18;;;;;;;14.13;6.45;;;3.20;99.90;;;;;;4918354;29;20056;-79
2021/01/30 12:57:46;;;;;;;11.73;5.85;;;3.20;99.90;;;;;;4918252;29;20071;-78
2021/01/30 13:00:17;;;;;;;10.60;5.45;;;3.20;99.90;;;;;;4920875;29;20055;-78
2021/01/30 13:02:46;;;;;;;55.70;12.38;;;3.20;99.90;;;;;;4922833;29;20048;-80
2021/01/30 13:05:15;;;;;;;10.57;4.70;;;3.20;99.90;;;;;;4928331;29;20056;-79
2021/01/30 13:07:45;;;;;;;8.40;4.55;;;3.20;99.90;;;;;;4935807;29;20063;-79
2021/01/30 13:10:19;;;;;;;9.55;4.88;;;3.00;99.90;;;;;;4936561;29;20051;-78
2021/01/30 13:12:47;;;;;;;9.20;5.00;;;2.80;99.90;;;;;;4903445;29;20059;-78
2021/01/30 13:15:17;;;;;;;10.27;5.03;;;2.60;99.90;;;;;;4936664;29;20055;-79
2021/01/30 13:17:45;;;;;;;11.10;5.47;;;2.50;99.90;;;;;;4925633;29;20064;-81
2021/01/30 13:20:17;;;;;;;11.27;5.40;;;2.40;99.90;;;;;;4934825;29;20055;-79
2021/01/30 13:22:44;;;;;;;10.90;5.75;;;2.40;99.90;;;;;;4925457;29;20051;-79
2021/01/30 13:25:14;;;;;;;9.65;5.25;;;2.30;99.90;;;;;;4922076;29;20062;-78
2021/01/30 13:27:44;;;;;;;11.68;5.45;;;2.30;99.90;;;;;;4921613;29;20063;-80
2021/01/30 13:30:17;;;;;;;11.63;5.32;;;2.20;99.90;;;;;;4938303;29;20062;-80